Time;durP1;ratioP1;P1;durP2;ratioP2;P2;SDS_P1;SDS_P2;PMS_P1;PMS_P2;Temp;Humidity;BMP_temperature;BMP_pressure;BME280_temperature;BME280_humidity;BME280_pressure;Samples;Min_cycle;Max_cycle;Signal;HPM_P1;HPM_P2
2021/04/10 00:00:20;;;;;;;23.67;14.47;;;;;;;4.38;52.10;99910.39;1738346;81;21057;-59
2021/04/10 00:02:51;;;;;;;24.18;14.10;;;;;;;4.39;51.98;99908.30;1738346;81;21239;-60
2021/04/10 00:05:26;;;;;;;27.87;14.70;;;;;;;4.38;51.84;99915.50;1738520;82;21241;-59
2021/04/10 00:07:55;;;;;;;22.82;12.63;;;;;;;4.39;51.80;99913.81;1738627;81;21030;-61
2021/04/10 00:10:29;;;;;;;26.87;13.60;;;;;;;4.40;51.50;99902.41;1738453;81;21033;-62
2021/04/10 00:12:57;;;;;;;;;;;;;;;4.41;51.37;99909.26;1740966;81;21231;-62
2021/04/10 00:15:30;;;;;;;23.92;14.30;;;;;;;4.42;51.55;99904.61;1738394;81;20247;-62
2021/04/10 00:17:58;;;;;;;;;;;;;;;4.40;51.55;99899.85;1741060;81;21073;-59
2021/04/10 00:20:26;;;;;;;32.30;16.20;;;;;;;4.40;51.58;99904.05;1738507;81;20136;-60
2021/04/10 00:22:54;;;;;;;24.12;15.05;;;;;;;4.38;51.83;99912.08;1738584;81;21130;-59
2021/04/10 00:25:22;;;;;;;26.73;15.35;;;;;;;4.35;51.87;99907.66;1738433;81;21061;-62
2021/04/10 00:27:52;;;;;;;28.77;14.83;;;;;;;4.33;51.87;99900.34;1739112;81;21444;-60
2021/04/10 00:30:21;;;;;;;27.13;13.83;;;;;;;4.31;51.81;99901.52;1738537;81;21224;-60
2021/04/10 00:32:51;;;;;;;25.27;14.13;;;;;;;4.31;51.89;99909.19;1738733;81;21474;-60
2021/04/10 00:35:19;;;;;;;24.35;13.62;;;;;;;4.33;51.88;99906.72;1738414;81;21220;-59
2021/04/10 00:37:47;;;;;;;31.73;13.75;;;;;;;4.31;51.85;99898.97;1738463;81;21081;-59
2021/04/10 00:40:15;;;;;;;19.87;12.47;;;;;;;4.35;51.73;99902.54;1738446;81;21183;-59
2021/04/10 00:42:43;;;;;;;27.85;13.25;;;;;;;4.35;51.55;99906.38;1738401;81;21223;-60
2021/04/10 00:45:12;;;;;;;21.00;12.47;;;;;;;4.36;51.60;99905.59;1738501;82;21069;-59
2021/04/10 00:47:41;;;;;;;24.70;13.98;;;;;;;4.37;51.54;99911.17;1761169;81;21072;-60
2021/04/10 00:50:11;;;;;;;26.37;15.13;;;;;;;4.37;51.55;99911.17;1765960;80;21024;-60
2021/04/10 00:52:42;;;;;;;31.17;16.37;;;;;;;4.34;51.73;99905.50;1765997;80;21460;-60
2021/04/10 00:55:12;;;;;;;29.50;15.53;;;;;;;4.34;51.90;99908.46;1766041;80;21037;-61
2021/04/10 00:57:41;;;;;;;27.25;15.72;;;;;;;4.32;52.02;99904.95;1766032;81;21017;-62
2021/04/10 01:00:11;;;;;;;32.35;16.42;;;;;;;4.27;52.14;99908.95;1766174;81;21017;-60
2021/04/10 01:02:39;;;;;;;36.40;19.05;;;;;;;4.25;52.20;99910.54;1766080;80;21178;-60
2021/04/10 01:05:08;;;;;;;34.88;19.37;;;;;;;4.21;52.36;99911.20;1765975;80;21049;-59
2021/04/10 01:07:36;;;;;;;34.00;18.67;;;;;;;4.17;52.48;99913.11;1765933;80;21033;-58
2021/04/10 01:10:06;;;;;;;33.15;18.67;;;;;;;4.12;52.58;99908.66;1766148;80;21178;-58
2021/04/10 01:13:19;;;;;;;32.73;17.85;;;;;;;4.10;52.74;99910.66;1766161;80;21060;-59
2021/04/10 01:16:10;;;;;;;30.08;17.15;;;;;;;4.05;52.77;99907.86;1766287;81;21158;-59
2021/04/10 01:19:28;;;;;;;32.50;17.70;;;;;;;4.01;52.90;99909.76;1765898;80;21467;-58
2021/04/10 01:22:11;;;;;;;31.50;17.40;;;;;;;3.98;52.90;99907.05;1766011;80;21118;-59
2021/04/10 01:24:59;;;;;;;31.23;16.90;;;;;;;3.96;52.93;99906.09;1765979;80;21041;-60
2021/04/10 01:27:43;;;;;;;32.42;15.58;;;;;;;3.94;52.95;99900.42;1766138;80;21186;-58
2021/04/10 01:30:18;;;;;;;28.92;16.90;;;;;;;3.92;52.94;99909.30;1766092;80;21225;-58
2021/04/10 01:33:09;;;;;;;33.83;17.70;;;;;;;3.89;53.11;99904.00;1766120;80;21089;-58
2021/04/10 01:35:53;;;;;;;32.13;17.25;;;;;;;3.86;53.24;99910.23;1766220;81;21037;-59
2021/04/10 01:38:23;;;;;;;29.02;16.60;;;;;;;3.80;53.43;99904.81;1765931;80;21435;-59
2021/04/10 01:40:55;;;;;;;35.43;17.33;;;;;;;3.78;53.48;99898.74;1766227;81;21459;-60
2021/04/10 01:43:24;;;;;;;36.28;16.55;;;;;;;3.77;53.54;99907.21;1766007;81;21025;-61
2021/04/10 01:45:54;;;;;;;31.97;16.77;;;;;;;3.73;53.62;99907.83;1766092;80;21024;-60
2021/04/10 01:48:23;;;;;;;26.33;16.20;;;;;;;3.68;53.83;99908.45;1736202;81;21068;-59
2021/04/10 01:50:53;;;;;;;31.33;17.52;;;;;;;3.62;54.02;99905.59;1766154;81;21491;-60
2021/04/10 01:53:24;;;;;;;29.50;17.27;;;;;;;3.58;54.13;99904.92;1766149;81;21451;-60
2021/04/10 01:55:55;;;;;;;26.55;15.95;;;;;;;3.56;54.25;99908.19;1766105;80;21163;-61
2021/04/10 01:58:27;;;;;;;28.10;15.70;;;;;;;3.49;54.34;99903.17;1766212;80;21467;-60
2021/04/10 02:00:57;;;;;;;28.60;16.40;;;;;;;3.47;54.46;99903.48;1765994;80;21060;-62
2021/04/10 02:03:26;;;;;;;33.48;14.80;;;;;;;3.46;54.56;99901.34;1766078;80;21440;-61
2021/04/10 02:05:56;;;;;;;27.65;15.78;;;;;;;3.47;54.53;99912.41;1765809;80;21174;-59
2021/04/10 02:08:45;;;;;;;25.70;14.80;;;;;;;3.45;54.59;99903.80;1765064;80;21534;-62
2021/04/10 02:11:16;;;;;;;24.67;14.70;;;;;;;3.45;54.49;99902.11;1764824;81;21471;-58
2021/04/10 02:13:49;;;;;;;30.60;16.37;;;;;;;3.44;54.47;99907.16;1764911;80;21175;-61
2021/04/10 02:16:21;;;;;;;30.45;15.05;;;;;;;3.45;54.58;99910.17;1765335;80;21443;-60
2021/04/10 02:18:53;;;;;;;27.65;13.62;;;;;;;3.44;54.60;99908.43;1765727;81;21452;-59
2021/04/10 02:21:32;;;;;;;29.27;15.55;;;;;;;3.42;54.66;99908.73;1765832;80;21060;-61
2021/04/10 02:23:56;;;;;;;26.62;14.90;;;;;;;3.41;54.72;99909.52;1765000;79;21044;-60
2021/04/10 02:26:27;;;;;;;25.30;14.35;;;;;;;3.40;54.91;99907.77;1765076;79;21613;-60
2021/04/10 02:28:59;;;;;;;21.95;14.03;;;;;;;3.38;54.85;99909.35;1766108;81;21606;-58
2021/04/10 02:31:33;;;;;;;27.13;13.87;;;;;;;3.36;54.96;99902.00;1766077;80;21068;-61
2021/04/10 02:34:09;;;;;;;22.87;14.90;;;;;;;3.34;55.13;99904.49;1765944;81;21064;-58
2021/04/10 02:36:41;;;;;;;21.62;13.20;;;;;;;3.31;55.22;99902.15;1766053;80;21420;-60
2021/04/10 02:39:10;;;;;;;24.47;13.22;;;;;;;3.31;55.27;99903.05;1765981;81;21028;-61
2021/04/10 02:41:39;;;;;;;24.67;13.28;;;;;;;3.31;55.39;99899.59;1765868;80;21191;-59
2021/04/10 02:44:11;;;;;;;19.30;11.48;;;;;;;3.29;55.48;99898.66;1736797;80;21008;-60
2021/04/10 02:46:51;;;;;;;22.58;12.35;;;;;;;3.25;55.61;99902.30;1734941;81;21131;-58
2021/04/10 02:49:30;;;;;;;28.15;14.03;;;;;;;3.25;55.70;99903.98;1752766;82;21182;-59
2021/04/10 02:52:01;;;;;;;22.02;12.80;;;;;;;3.25;55.58;99897.20;1752057;81;21385;-59
2021/04/10 02:54:34;;;;;;;23.77;13.10;;;;;;;3.28;55.59;99905.81;1753109;82;21433;-58
2021/04/10 02:57:13;;;;;;;22.85;12.63;;;;;;;3.29;55.53;99898.66;1752823;82;20989;-60
2021/04/10 02:59:46;;;;;;;20.55;12.45;;;;;;;3.29;55.47;99905.04;1752690;82;21221;-58
2021/04/10 03:02:16;;;;;;;23.83;12.55;;;;;;;3.30;55.46;99901.68;1752685;82;20997;-60
2021/04/10 03:04:47;;;;;;;26.85;11.85;;;;;;;3.32;55.40;99905.20;1752665;82;21184;-59
2021/04/10 03:07:17;;;;;;;;;;;;;;;3.34;55.38;99898.11;1755184;82;21022;-60
2021/04/10 03:09:48;;;;;;;28.65;12.98;;;;;;;3.35;55.30;99902.81;1752972;82;20384;-60
2021/04/10 03:12:18;;;;;;;22.70;12.55;;;;;;;3.35;55.25;99907.52;1752780;82;21009;-62
2021/04/10 03:14:48;;;;;;;23.47;12.82;;;;;;;3.38;55.21;99915.73;1752969;82;21428;-58
2021/04/10 03:17:21;;;;;;;20.70;12.23;;;;;;;3.38;55.15;99914.05;1752711;82;21163;-59
2021/04/10 03:19:53;;;;;;;26.05;11.68;;;;;;;3.42;54.94;99924.05;1752675;82;21057;-59
2021/04/10 03:22:21;;;;;;;22.17;12.28;;;;;;;3.46;54.87;99913.19;1752619;82;21163;-61
2021/04/10 03:24:50;;;;;;;21.55;10.63;;;;;;;3.50;54.78;99918.95;1752612;82;21019;-60
2021/04/10 03:27:21;;;;;;;19.50;11.83;;;;;;;3.54;54.62;99920.02;1752677;82;21010;-60
2021/04/10 03:29:50;;;;;;;22.98;12.23;;;;;;;3.57;54.57;99921.45;1752858;82;21191;-60
2021/04/10 03:32:20;;;;;;;20.45;12.45;;;;;;;3.59;54.52;99922.42;1751792;82;21155;-59
2021/04/10 03:34:50;;;;;;;22.17;12.37;;;;;;;3.60;54.45;99916.10;1752741;82;21037;-62
2021/04/10 03:37:18;;;;;;;21.33;11.00;;;;;;;3.65;54.18;99922.34;1752619;82;21171;-61
2021/04/10 03:39:47;;;;;;;22.98;12.63;;;;;;;3.73;54.10;99926.98;1752646;82;21167;-62
2021/04/10 03:42:20;;;;;;;23.55;12.28;;;;;;;3.76;54.04;99925.45;1727250;82;21036;-60
2021/04/10 03:44:48;;;;;;;20.62;11.50;;;;;;;3.76;53.92;99928.01;1752640;82;21013;-61
2021/04/10 03:47:18;;;;;;;21.35;12.53;;;;;;;3.80;53.90;99934.17;1749066;79;21524;-59
2021/04/10 03:49:48;;;;;;;18.52;11.48;;;;;;;3.83;53.81;99912.63;1752619;82;21009;-58
2021/04/10 03:52:16;;;;;;;20.70;12.03;;;;;;;3.87;53.70;99929.48;1752940;82;21033;-61
2021/04/10 03:54:44;;;;;;;21.27;11.68;;;;;;;3.91;53.69;99922.84;1752794;82;21183;-60
2021/04/10 03:57:12;;;;;;;21.23;11.43;;;;;;;3.96;53.64;99922.69;1752597;82;21033;-59
2021/04/10 03:59:42;;;;;;;21.62;11.20;;;;;;;4.01;53.49;99921.25;1752882;82;21021;-60
2021/04/10 04:02:11;;;;;;;19.92;11.85;;;;;;;4.06;53.41;99930.03;1751993;82;21717;-58
2021/04/10 04:04:40;;;;;;;20.43;11.45;;;;;;;4.11;53.29;99909.44;1752617;82;21005;-60
2021/04/10 04:07:08;;;;;;;21.40;12.03;;;;;;;4.22;53.10;99924.03;1752773;82;21045;-60
2021/04/10 04:09:38;;;;;;;19.55;10.90;;;;;;;4.31;52.92;99923.64;1758738;80;20999;-61
2021/04/10 04:12:09;;;;;;;17.77;10.50;;;;;;;4.41;52.60;99927.55;1781279;80;21192;-60
2021/04/10 04:14:38;;;;;;;22.22;11.95;;;;;;;4.48;52.52;99920.27;1781396;80;21014;-62
2021/04/10 04:17:06;;;;;;;17.75;11.12;;;;;;;4.56;52.29;99927.92;1781332;80;21169;-57
2021/04/10 04:19:35;;;;;;;19.45;10.82;;;;;;;4.66;52.04;99930.95;1781262;80;21022;-60
2021/04/10 04:22:04;;;;;;;20.48;11.60;;;;;;;4.73;51.87;99934.27;1775215;80;21161;-60
2021/04/10 04:24:32;;;;;;;22.58;11.68;;;;;;;4.79;51.69;99933.31;1759043;80;21089;-59
2021/04/10 04:27:00;;;;;;;19.62;11.28;;;;;;;4.91;51.49;99927.90;1744063;82;21055;-59
2021/04/10 04:29:28;;;;;;;22.07;11.93;;;;;;;4.98;51.30;99919.73;1743989;82;21050;-61
2021/04/10 04:31:56;;;;;;;20.82;11.90;;;;;;;5.07;51.25;99933.39;1743887;82;21265;-62
2021/04/10 04:34:24;;;;;;;21.40;11.68;;;;;;;5.15;51.11;99903.92;1744033;82;21074;-61
2021/04/10 04:36:53;;;;;;;22.05;11.90;;;;;;;5.25;50.86;99920.59;1743821;82;21058;-60
2021/04/10 04:39:21;;;;;;;24.77;12.55;;;;;;;5.32;50.77;99922.64;1743876;82;21062;-60
2021/04/10 04:41:49;;;;;;;24.65;11.88;;;;;;;5.41;50.66;99927.77;1744050;82;21063;-61
2021/04/10 04:44:17;;;;;;;23.40;12.35;;;;;;;5.49;50.42;99921.73;1744104;82;21470;-60
2021/04/10 04:46:46;;;;;;;23.57;11.28;;;;;;;5.56;50.31;99931.45;1744088;82;21054;-61
2021/04/10 04:49:13;;;;;;;22.73;11.93;;;;;;;5.65;50.10;99934.86;1756922;82;21260;-62
2021/04/10 04:51:42;;;;;;;21.60;12.00;;;;;;;5.74;50.15;99939.10;1757111;81;21215;-62
2021/04/10 04:54:10;;;;;;;24.35;12.70;;;;;;;5.87;49.97;99942.69;1757301;81;21054;-60
2021/04/10 04:56:38;;;;;;;20.70;11.28;;;;;;;6.00;49.79;99937.74;1757117;81;21077;-62
2021/04/10 04:59:06;;;;;;;25.92;12.37;;;;;;;6.17;49.17;99939.79;1757259;81;21058;-60
2021/04/10 05:01:34;;;;;;;20.57;12.58;;;;;;;6.66;48.67;99944.88;1757282;81;21157;-62
2021/04/10 05:04:02;;;;;;;21.60;11.50;;;;;;;7.93;46.32;99940.94;1782346;80;21216;-62
2021/04/10 05:06:30;;;;;;;20.88;11.25;;;;;;;9.37;44.66;99937.75;1792599;80;21188;-61
2021/04/10 05:08:58;;;;;;;20.65;12.18;;;;;;;10.51;40.98;99928.64;1777937;80;21077;-61
2021/04/10 05:11:30;;;;;;;21.02;11.28;;;;;;;11.55;39.54;99944.94;1762161;80;21185;-61
2021/04/10 05:13:59;;;;;;;22.25;11.93;;;;;;;12.38;37.37;99947.17;1785783;80;21147;-59
2021/04/10 05:16:26;;;;;;;19.82;10.75;;;;;;;13.12;34.96;99932.94;1773506;80;21062;-63
2021/04/10 05:18:54;;;;;;;18.20;10.85;;;;;;;13.50;34.40;99949.55;1773935;80;21058;-62
2021/04/10 05:21:23;;;;;;;15.72;9.90;;;;;;;13.63;34.58;99944.98;1776568;80;21191;-60
2021/04/10 05:23:51;;;;;;;18.70;10.70;;;;;;;14.36;32.66;99944.64;1784398;80;21101;-62
2021/04/10 05:26:19;;;;;;;15.03;10.23;;;;;;;14.50;32.26;99945.23;1792530;80;21180;-62
2021/04/10 05:28:47;;;;;;;14.53;9.78;;;;;;;14.52;32.10;99947.40;1792335;80;21180;-62
2021/04/10 05:31:15;;;;;;;14.98;10.00;;;;;;;14.46;32.18;99943.88;1792320;80;21188;-62
2021/04/10 05:33:43;;;;;;;16.90;10.25;;;;;;;15.13;31.91;99943.69;1792451;80;21250;-61
2021/04/10 05:36:12;;;;;;;16.42;10.53;;;;;;;16.04;30.40;99951.67;1792572;80;21042;-60
2021/04/10 05:38:40;;;;;;;17.23;9.85;;;;;;;16.69;29.41;99953.64;1792280;80;21058;-61
2021/04/10 05:41:08;;;;;;;16.20;10.28;;;;;;;17.07;28.46;99958.48;1792548;80;21144;-61
2021/04/10 05:43:36;;;;;;;16.50;9.20;;;;;;;17.20;28.61;99958.05;1792405;80;21057;-61
2021/04/10 05:46:04;;;;;;;14.78;9.50;;;;;;;17.70;28.27;99955.39;1792784;80;21014;-61
2021/04/10 05:48:33;;;;;;;16.00;10.60;;;;;;;17.85;27.79;99961.48;1796786;80;21147;-62
2021/04/10 05:51:01;;;;;;;13.65;10.08;;;;;;;18.30;27.45;99970.05;1800307;80;21139;-62
2021/04/10 05:53:29;;;;;;;17.48;10.25;;;;;;;18.49;26.63;99969.52;1797331;80;21188;-62
2021/04/10 05:55:58;;;;;;;17.17;9.63;;;;;;;17.81;27.13;99960.64;1742847;80;21071;-60
2021/04/10 05:58:27;;;;;;;15.25;9.45;;;;;;;16.96;27.97;99959.78;1761066;81;21097;-61
2021/04/10 06:00:55;;;;;;;14.23;9.60;;;;;;;16.97;27.98;99943.29;1761791;80;21353;-61
2021/04/10 06:03:23;;;;;;;15.48;9.13;;;;;;;17.19;27.94;99957.63;1761008;80;21207;-62
2021/04/10 06:05:51;;;;;;;17.95;9.18;;;;;;;17.96;27.44;99966.23;1757232;80;21171;-61
2021/04/10 06:08:19;;;;;;;15.95;10.03;;;;;;;18.96;26.67;99971.88;1762529;81;21038;-62
2021/04/10 06:10:47;;;;;;;14.15;9.03;;;;;;;19.54;25.67;99965.30;1760280;81;21183;-63
2021/04/10 06:13:15;;;;;;;13.78;8.80;;;;;;;20.27;24.72;99959.70;1763419;81;21181;-62
2021/04/10 06:15:43;;;;;;;15.72;9.48;;;;;;;19.94;24.75;99972.31;1763614;81;21120;-62
2021/04/10 06:18:12;;;;;;;15.28;9.58;;;;;;;20.50;24.61;99976.89;1744049;81;21086;-70
2021/04/10 06:20:40;;;;;;;15.35;9.15;;;;;;;20.75;23.97;99983.56;1731218;81;21218;-63
2021/04/10 06:23:08;;;;;;;12.82;8.50;;;;;;;21.02;23.38;99980.99;1730604;81;21103;-62
2021/04/10 06:25:36;;;;;;;12.40;8.15;;;;;;;20.25;24.11;99972.41;1728418;81;21071;-63
2021/04/10 06:28:05;;;;;;;16.05;9.88;;;;;;;20.66;23.82;99963.16;1728648;82;21238;-65
2021/04/10 06:30:34;;;;;;;11.57;7.80;;;;;;;21.43;23.11;99975.54;1728582;81;21044;-62
2021/04/10 06:33:02;;;;;;;12.03;7.95;;;;;;;22.06;22.37;99975.70;1728227;83;21231;-62
2021/04/10 06:35:30;;;;;;;12.18;7.85;;;;;;;22.53;21.74;99974.31;1728403;83;21138;-62
2021/04/10 06:37:58;;;;;;;12.10;7.95;;;;;;;22.88;21.54;99979.25;1728570;81;21100;-64
2021/04/10 06:40:26;;;;;;;13.30;8.05;;;;;;;23.30;21.31;99980.45;1728317;81;21226;-64
2021/04/10 06:42:55;;;;;;;13.48;8.35;;;;;;;22.70;21.10;99976.13;1728625;81;21024;-63
2021/04/10 06:45:24;;;;;;;10.35;7.60;;;;;;;21.37;22.56;99978.25;1728538;82;21098;-65
2021/04/10 06:47:54;;;;;;;10.75;7.70;;;;;;;21.36;22.57;99990.94;1730227;81;21537;-64
2021/04/10 06:50:23;;;;;;;11.10;8.38;;;;;;;20.36;23.31;99986.27;1759436;80;21093;-62
2021/04/10 06:52:53;;;;;;;11.48;8.00;;;;;;;18.58;25.36;99949.87;1759446;80;21038;-64
2021/04/10 06:55:25;;;;;;;12.43;7.25;;;;;;;18.97;25.54;99974.05;1779238;80;21540;-63
2021/04/10 06:58:05;;;;;;;13.03;7.62;;;;;;;20.21;24.39;99978.14;1759223;80;21247;-63
2021/04/10 07:00:35;;;;;;;10.88;8.05;;;;;;;21.14;23.36;99981.67;1760236;80;21618;-62
2021/04/10 07:03:04;;;;;;;13.18;7.40;;;;;;;21.92;22.31;99972.46;1763901;81;21104;-63
2021/04/10 07:05:32;;;;;;;12.60;7.78;;;;;;;22.14;21.67;99978.17;1764067;81;21037;-61
2021/04/10 07:08:01;;;;;;;11.18;7.47;;;;;;;22.11;21.59;99958.07;1763788;81;21059;-62
2021/04/10 07:10:30;;;;;;;11.97;7.55;;;;;;;20.96;22.65;99983.72;1763768;81;21041;-66
2021/04/10 07:12:59;;;;;;;14.00;7.95;;;;;;;19.91;23.84;99955.77;1763736;81;21211;-64
2021/04/10 07:15:27;;;;;;;12.00;6.97;;;;;;;19.35;24.67;99979.43;1763966;81;21516;-63
2021/04/10 07:17:57;;;;;;;12.30;8.33;;;;;;;19.88;24.38;99985.94;1763325;81;21626;-62
2021/04/10 07:20:30;;;;;;;16.60;8.55;;;;;;;19.37;24.48;99992.08;1763857;81;21209;-61
2021/04/10 07:23:02;;;;;;;15.93;9.38;;;;;;;18.18;26.01;99967.90;1763775;81;21432;-64
2021/04/10 07:25:37;;;;;;;14.85;8.70;;;;;;;17.33;27.19;99978.07;1763886;81;21077;-62
2021/04/10 07:28:26;;;;;;;12.25;8.55;;;;;;;17.68;27.25;99978.45;1764094;81;21551;-63
2021/04/10 07:31:00;;;;;;;11.40;8.33;;;;;;;19.13;25.78;99991.36;1763992;81;21179;-59
2021/04/10 07:33:31;;;;;;;15.65;8.50;;;;;;;19.24;25.32;99959.45;1773656;80;21006;-63
2021/04/10 07:36:03;;;;;;;13.05;7.67;;;;;;;20.09;24.24;99977.83;1740765;81;21172;-62
2021/04/10 07:38:34;;;;;;;11.65;8.40;;;;;;;20.01;24.38;99984.92;1779697;80;21036;-62
2021/04/10 07:41:05;;;;;;;;;;;;;;;20.94;23.64;99988.54;1786695;79;21026;-68
2021/04/10 07:43:38;;;;;;;13.55;7.85;;;;;;;21.11;23.06;99997.48;1792549;79;20366;-61
2021/04/10 07:46:27;;;;;;;14.87;8.98;;;;;;;21.52;22.98;99985.45;1777779;80;21020;-64
2021/04/10 07:49:05;;;;;;;12.57;7.97;;;;;;;22.47;21.94;99980.58;1774447;80;21060;-62
2021/04/10 07:51:36;;;;;;;13.65;7.80;;;;;;;23.13;21.54;99981.75;1767793;80;21321;-62
2021/04/10 07:54:28;;;;;;;11.97;8.20;;;;;;;23.35;20.58;99991.28;1757350;81;21481;-61
2021/04/10 07:57:00;;;;;;;13.80;8.98;;;;;;;23.45;20.73;99980.06;1757318;81;21192;-60
2021/04/10 07:59:34;;;;;;;11.63;8.08;;;;;;;23.48;20.47;99985.25;1757255;81;21480;-62
2021/04/10 08:02:14;;;;;;;14.07;8.73;;;;;;;23.54;20.44;99986.42;1757377;81;21465;-63
2021/04/10 08:04:59;;;;;;;9.23;7.00;;;;;;;22.45;20.92;99986.78;1757051;81;21046;-61
2021/04/10 08:07:31;;;;;;;9.50;7.40;;;;;;;21.19;22.09;99973.28;1757079;81;21639;-61
2021/04/10 08:10:08;;;;;;;11.05;7.10;;;;;;;21.16;22.18;99982.52;1780327;80;21301;-61
2021/04/10 08:12:39;;;;;;;11.48;6.70;;;;;;;20.76;22.65;99977.87;1792471;78;21069;-62
2021/04/10 08:15:11;;;;;;;9.80;7.42;;;;;;;21.24;21.66;99987.20;1793014;80;21006;-71
2021/04/10 08:17:43;;;;;;;13.60;8.00;;;;;;;21.77;21.58;99978.87;1793133;80;21018;-60
2021/04/10 08:20:25;;;;;;;10.55;7.35;;;;;;;21.98;21.03;99984.61;1793334;80;21460;-63
2021/04/10 08:22:55;;;;;;;;;;;;;;;21.63;21.63;99979.59;1795799;80;21168;-63
2021/04/10 08:25:33;;;;;;;10.63;7.35;;;;;;;20.97;22.20;99977.56;1789325;80;20155;-63
2021/04/10 08:28:01;;;;;;;8.83;6.62;;;;;;;20.79;21.91;99979.16;1793028;80;21144;-63
2021/04/10 08:30:29;;;;;;;11.45;6.90;;;;;;;19.26;22.78;99976.02;1793859;80;21215;-62
2021/04/10 08:32:57;;;;;;;10.85;7.15;;;;;;;18.30;24.14;99970.91;1793699;80;21159;-62
2021/04/10 08:35:26;;;;;;;9.95;6.65;;;;;;;18.21;24.24;99970.94;1794624;79;21188;-62
2021/04/10 08:37:59;;;;;;;8.40;6.10;;;;;;;18.58;24.16;99965.11;1794623;80;21025;-63
2021/04/10 08:40:30;;;;;;;9.15;6.85;;;;;;;18.85;23.87;99960.19;1794366;80;21073;-61
2021/04/10 08:43:00;;;;;;;11.60;6.90;;;;;;;18.63;23.61;99962.47;1794384;79;21026;-62
2021/04/10 08:48:14;;;;;;;11.10;7.17;;;;;;;19.01;23.78;99964.00;1889757;76;22175;-62
2021/04/10 08:50:43;;;;;;;13.27;6.77;;;;;;;18.71;23.75;99962.43;1861766;77;21102;-61
2021/04/10 08:53:16;;;;;;;12.03;7.00;;;;;;;18.23;24.57;99963.97;1861090;77;21288;-62
2021/04/10 08:55:45;;;;;;;11.28;6.97;;;;;;;18.38;24.32;99965.20;1791426;80;21182;-61
2021/04/10 08:58:26;;;;;;;9.80;6.72;;;;;;;18.49;24.20;99964.28;1791675;80;21138;-62
2021/04/10 09:01:00;;;;;;;10.53;6.65;;;;;;;18.66;24.23;99967.68;1791681;80;21170;-62
2021/04/10 09:03:51;;;;;;;8.80;6.33;;;;;;;18.70;24.22;99967.21;1791383;80;21122;-61
2021/04/10 09:06:40;;;;;;;10.82;7.30;;;;;;;18.52;24.19;99955.11;1791480;80;21320;-63
2021/04/10 09:09:21;;;;;;;10.65;6.83;;;;;;;18.33;24.44;99973.51;1791391;80;21146;-61
2021/04/10 09:11:49;;;;;;;10.10;6.22;;;;;;;18.19;24.64;99957.91;1790992;80;21142;-61
2021/04/10 09:14:44;;;;;;;10.45;6.65;;;;;;;17.81;24.88;99951.50;1791794;80;21110;-62
2021/04/10 09:17:15;;;;;;;9.85;6.12;;;;;;;16.99;25.16;99960.22;1791704;80;21703;-62
2021/04/10 09:19:43;;;;;;;12.50;6.83;;;;;;;16.21;26.08;99955.23;1791482;80;21299;-62
2021/04/10 09:22:18;;;;;;;10.90;6.72;;;;;;;15.78;27.06;99959.36;1791852;80;21586;-62
2021/04/10 09:24:49;;;;;;;13.90;7.20;;;;;;;15.08;27.81;99948.84;1791440;80;21137;-62
2021/04/10 09:27:25;;;;;;;11.95;7.15;;;;;;;14.73;27.86;99942.02;1791418;80;21174;-62
2021/04/10 09:30:00;;;;;;;11.35;7.37;;;;;;;14.53;28.15;99942.70;1791636;80;21727;-63
2021/04/10 09:32:41;;;;;;;14.15;7.62;;;;;;;14.33;28.47;99937.69;1791406;80;21133;-61
2021/04/10 09:35:19;;;;;;;13.68;7.47;;;;;;;14.10;29.59;99924.00;1791752;80;21177;-61
2021/04/10 09:37:53;;;;;;;11.88;7.28;;;;;;;13.80;29.41;99943.08;1791533;80;21106;-62
2021/04/10 09:40:27;;;;;;;10.18;6.95;;;;;;;13.65;29.86;99920.38;1791670;80;21549;-62
2021/04/10 09:43:06;;;;;;;11.85;7.28;;;;;;;13.46;30.50;99941.30;1785070;80;21284;-62
2021/04/10 09:45:37;;;;;;;11.08;7.45;;;;;;;12.83;30.94;99935.48;1791367;80;21162;-62
2021/04/10 09:48:11;;;;;;;11.73;7.03;;;;;;;12.54;31.71;99924.16;1784749;80;21138;-61
2021/04/10 09:50:54;;;;;;;12.40;7.20;;;;;;;12.43;32.07;99937.34;1855441;77;21126;-61
2021/04/10 09:53:26;;;;;;;12.35;7.62;;;;;;;12.15;32.55;99923.43;1782973;80;21241;-61
2021/04/10 09:56:10;;;;;;;11.38;7.03;;;;;;;11.91;32.60;99927.70;1855335;77;21328;-61
2021/04/10 09:58:43;;;;;;;12.07;7.10;;;;;;;11.97;33.15;99918.31;1855193;77;21146;-61
2021/04/10 10:01:15;;;;;;;;;;;;;;;12.10;33.14;99926.77;1857675;77;21255;-62
2021/04/10 10:03:45;;;;;;;17.87;7.37;;;;;;;12.30;32.66;99924.16;1854722;77;20245;-62
2021/04/10 10:06:23;;;;;;;11.95;7.83;;;;;;;12.55;32.48;99912.98;1854655;77;21276;-61
2021/04/10 10:08:52;;;;;;;13.90;7.70;;;;;;;12.64;32.33;99904.49;1854966;77;21280;-62
2021/04/10 10:11:21;;;;;;;15.43;8.10;;;;;;;12.66;32.03;99903.67;1854981;77;21525;-60
2021/04/10 10:13:49;;;;;;;12.23;7.47;;;;;;;12.68;32.19;99902.41;1854767;77;21158;-62
2021/04/10 10:16:30;;;;;;;11.75;7.37;;;;;;;12.73;32.06;99893.87;1854762;77;21154;-61
2021/04/10 10:19:01;;;;;;;13.45;7.50;;;;;;;12.75;31.72;99909.02;1854748;77;21119;-60
2021/04/10 10:21:31;;;;;;;11.08;8.10;;;;;;;12.80;31.37;99899.61;1854625;77;21154;-62
2021/04/10 10:24:03;;;;;;;12.95;7.22;;;;;;;12.87;31.66;99904.89;1854927;77;21676;-62
2021/04/10 10:26:39;;;;;;;13.68;8.45;;;;;;;12.92;31.35;99899.36;1855024;77;21142;-61
2021/04/10 10:29:12;;;;;;;16.15;8.35;;;;;;;12.93;31.70;99895.94;1854712;77;21268;-62
2021/04/10 10:31:48;;;;;;;17.00;8.35;;;;;;;12.92;31.58;99904.54;1854854;77;21281;-62
2021/04/10 10:34:23;;;;;;;17.27;7.22;;;;;;;12.97;31.20;99891.23;1854767;77;21142;-62
2021/04/10 10:36:54;;;;;;;12.33;7.15;;;;;;;13.02;31.14;99898.66;1854602;77;21529;-62
2021/04/10 10:39:39;;;;;;;13.85;7.12;;;;;;;13.00;31.07;99896.06;1854706;77;21142;-61
2021/04/10 10:42:08;;;;;;;9.78;6.12;;;;;;;13.07;31.25;99890.53;1854772;77;21138;-61
2021/04/10 10:44:38;;;;;;;13.13;6.72;;;;;;;13.29;31.24;99887.89;1854983;77;21347;-62
2021/04/10 10:47:08;;;;;;;12.30;7.80;;;;;;;13.42;30.98;99874.68;1852193;77;21154;-61
2021/04/10 10:49:37;;;;;;;13.62;7.97;;;;;;;13.42;30.98;99874.68;1774374;81;21586;-61
2021/04/10 10:52:18;;;;;;;16.17;8.65;;;;;;;13.41;31.02;99872.95;1845759;78;21135;-61
2021/04/10 10:54:47;;;;;;;14.43;8.80;;;;;;;13.30;30.74;99880.98;1846085;78;21285;-61
2021/04/10 10:57:18;;;;;;;13.58;8.80;;;;;;;12.91;31.28;99884.24;1845956;78;21150;-61
2021/04/10 10:59:47;;;;;;;11.63;7.95;;;;;;;12.97;31.58;99878.28;1771952;81;21151;-62
2021/04/10 11:02:20;;;;;;;16.17;8.35;;;;;;;13.07;30.77;99874.98;1845974;77;21288;-62
2021/04/10 11:04:49;;;;;;;13.43;8.10;;;;;;;12.84;31.01;99846.55;1774434;81;21208;-61
2021/04/10 11:07:24;;;;;;;14.13;8.48;;;;;;;12.76;31.45;99857.66;1845710;78;21280;-61
2021/04/10 11:09:54;;;;;;;14.80;8.85;;;;;;;12.80;31.68;99860.77;1845709;77;22038;-61
2021/04/10 11:12:25;;;;;;;14.15;7.85;;;;;;;13.00;31.34;99848.53;1774388;80;21217;-62
2021/04/10 11:14:59;;;;;;;12.93;7.45;;;;;;;13.19;30.92;99857.03;1845687;77;21110;-62
2021/04/10 11:17:32;;;;;;;12.23;7.55;;;;;;;13.38;30.96;99854.33;1845923;78;21549;-62
2021/04/10 11:20:03;;;;;;;14.47;8.43;;;;;;;13.53;31.00;99854.94;1774811;80;21577;-62
2021/04/10 11:22:31;;;;;;;13.10;7.22;;;;;;;13.68;30.88;99856.86;1842734;78;21277;-62
2021/04/10 11:25:01;;;;;;;13.58;8.43;;;;;;;13.83;30.66;99860.08;1845710;77;21141;-62
2021/04/10 11:27:35;;;;;;;11.27;7.37;;;;;;;13.97;30.17;99861.53;1774584;81;21178;-61
2021/04/10 11:30:12;;;;;;;10.00;6.45;;;;;;;14.08;29.81;99851.73;1845875;77;21213;-63
2021/04/10 11:32:43;;;;;;;11.08;7.67;;;;;;;14.12;29.54;99846.16;1774301;81;21162;-61
2021/04/10 11:35:20;;;;;;;11.73;7.75;;;;;;;14.04;29.46;99840.89;1846413;77;21107;-61
2021/04/10 11:37:52;;;;;;;12.03;7.40;;;;;;;14.13;29.74;99844.43;1845825;77;21139;-61
2021/04/10 11:40:30;;;;;;;14.40;7.92;;;;;;;14.32;29.44;99847.23;1774146;81;21119;-59
2021/04/10 11:43:06;;;;;;;15.40;7.28;;;;;;;14.51;29.10;99833.98;1845753;78;21170;-61
2021/04/10 11:45:44;;;;;;;12.10;7.33;;;;;;;14.44;28.62;99815.30;1845991;78;21154;-61
2021/04/10 11:48:22;;;;;;;12.05;7.70;;;;;;;14.18;28.47;99832.37;1845771;77;21277;-60
2021/04/10 11:50:54;;;;;;;13.30;8.15;;;;;;;13.86;28.99;99825.08;1845746;78;21162;-62